sensor_id;sensor_type;location;lat;lon;timestamp;P1;durP1;ratioP1;P2;durP2;ratioP2
3278;SDS011;1651;50.940;6.888;2022-12-11T00:01:29;39.17;;;20.10;;
3278;SDS011;1651;50.940;6.888;2022-12-11T00:03:55;40.72;;;18.50;;
3278;SDS011;1651;50.940;6.888;2022-12-11T00:06:21;41.73;;;19.67;;
3278;SDS011;1651;50.940;6.888;2022-12-11T00:08:53;43.70;;;21.13;;
3278;SDS011;1651;50.940;6.888;2022-12-11T00:11:19;54.83;;;19.52;;
3278;SDS011;1651;50.940;6.888;2022-12-11T00:13:45;46.38;;;20.20;;
3278;SDS011;1651;50.940;6.888;2022-12-11T00:16:12;58.28;;;22.90;;
3278;SDS011;1651;50.940;6.888;2022-12-11T00:18:38;48.50;;;21.60;;
3278;SDS011;1651;50.940;6.888;2022-12-11T00:21:05;53.45;;;20.33;;
3278;SDS011;1651;50.940;6.888;2022-12-11T00:23:31;45.42;;;19.38;;
3278;SDS011;1651;50.940;6.888;2022-12-11T00:25:58;46.13;;;19.98;;
3278;SDS011;1651;50.940;6.888;2022-12-11T00:28:26;45.53;;;20.20;;
3278;SDS011;1651;50.940;6.888;2022-12-11T00:30:52;48.58;;;21.17;;
3278;SDS011;1651;50.940;6.888;2022-12-11T00:33:18;56.30;;;24.20;;
3278;SDS011;1651;50.940;6.888;2022-12-11T00:35:45;47.77;;;22.80;;
3278;SDS011;1651;50.940;6.888;2022-12-11T00:38:17;55.42;;;23.30;;
3278;SDS011;1651;50.940;6.888;2022-12-11T00:40:43;51.13;;;22.65;;
3278;SDS011;1651;50.940;6.888;2022-12-11T00:43:14;48.85;;;21.77;;
3278;SDS011;1651;50.940;6.888;2022-12-11T00:45:41;54.65;;;20.38;;
3278;SDS011;1651;50.940;6.888;2022-12-11T00:48:08;47.47;;;20.40;;
3278;SDS011;1651;50.940;6.888;2022-12-11T00:50:35;50.67;;;22.83;;
3278;SDS011;1651;50.940;6.888;2022-12-11T00:53:01;49.75;;;21.52;;
3278;SDS011;1651;50.940;6.888;2022-12-11T00:55:27;50.15;;;22.33;;
3278;SDS011;1651;50.940;6.888;2022-12-11T00:57:54;58.85;;;22.75;;
3278;SDS011;1651;50.940;6.888;2022-12-11T01:00:21;56.97;;;22.17;;
3278;SDS011;1651;50.940;6.888;2022-12-11T01:02:48;47.80;;;20.50;;
3278;SDS011;1651;50.940;6.888;2022-12-11T01:05:16;50.75;;;22.30;;
3278;SDS011;1651;50.940;6.888;2022-12-11T01:07:42;47.60;;;23.73;;
3278;SDS011;1651;50.940;6.888;2022-12-11T01:10:09;54.45;;;23.88;;
3278;SDS011;1651;50.940;6.888;2022-12-11T01:12:58;51.60;;;22.90;;
3278;SDS011;1651;50.940;6.888;2022-12-11T01:15:26;50.47;;;22.92;;
3278;SDS011;1651;50.940;6.888;2022-12-11T01:17:53;47.65;;;21.88;;
3278;SDS011;1651;50.940;6.888;2022-12-11T01:20:20;45.78;;;21.60;;
3278;SDS011;1651;50.940;6.888;2022-12-11T01:22:46;46.22;;;19.92;;
3278;SDS011;1651;50.940;6.888;2022-12-11T01:25:13;45.63;;;20.60;;
3278;SDS011;1651;50.940;6.888;2022-12-11T01:27:39;47.80;;;21.25;;
3278;SDS011;1651;50.940;6.888;2022-12-11T01:30:06;44.80;;;19.67;;
3278;SDS011;1651;50.940;6.888;2022-12-11T01:32:33;42.08;;;20.20;;
3278;SDS011;1651;50.940;6.888;2022-12-11T01:35:02;45.50;;;20.58;;
3278;SDS011;1651;50.940;6.888;2022-12-11T01:37:30;42.88;;;22.13;;
3278;SDS011;1651;50.940;6.888;2022-12-11T01:39:59;44.67;;;19.42;;
3278;SDS011;1651;50.940;6.888;2022-12-11T01:42:26;42.20;;;19.67;;
3278;SDS011;1651;50.940;6.888;2022-12-11T01:47:40;46.85;;;20.45;;
3278;SDS011;1651;50.940;6.888;2022-12-11T01:50:07;49.45;;;20.15;;
3278;SDS011;1651;50.940;6.888;2022-12-11T01:52:33;40.17;;;19.70;;
3278;SDS011;1651;50.940;6.888;2022-12-11T01:54:59;43.35;;;19.00;;
3278;SDS011;1651;50.940;6.888;2022-12-11T01:57:26;48.63;;;20.38;;
3278;SDS011;1651;50.940;6.888;2022-12-11T01:59:52;51.88;;;20.42;;
3278;SDS011;1651;50.940;6.888;2022-12-11T02:02:28;43.40;;;21.47;;
3278;SDS011;1651;50.940;6.888;2022-12-11T02:04:57;49.03;;;19.95;;
3278;SDS011;1651;50.940;6.888;2022-12-11T02:07:23;51.30;;;21.40;;
3278;SDS011;1651;50.940;6.888;2022-12-11T02:09:50;42.47;;;19.00;;
3278;SDS011;1651;50.940;6.888;2022-12-11T02:20:08;45.42;;;21.45;;
3278;SDS011;1651;50.940;6.888;2022-12-11T02:27:45;45.90;;;20.23;;
3278;SDS011;1651;50.940;6.888;2022-12-11T02:30:13;48.15;;;18.73;;
3278;SDS011;1651;50.940;6.888;2022-12-11T02:32:48;40.85;;;18.70;;
3278;SDS011;1651;50.940;6.888;2022-12-11T02:35:19;46.17;;;18.60;;
3278;SDS011;1651;50.940;6.888;2022-12-11T02:37:46;42.00;;;20.77;;
3278;SDS011;1651;50.940;6.888;2022-12-11T02:40:16;41.50;;;17.25;;
3278;SDS011;1651;50.940;6.888;2022-12-11T02:42:44;42.72;;;17.60;;
3278;SDS011;1651;50.940;6.888;2022-12-11T02:45:11;42.28;;;21.30;;
3278;SDS011;1651;50.940;6.888;2022-12-11T02:47:38;45.20;;;18.80;;
3278;SDS011;1651;50.940;6.888;2022-12-11T02:50:06;40.67;;;17.85;;
3278;SDS011;1651;50.940;6.888;2022-12-11T02:52:34;37.58;;;17.08;;
3278;SDS011;1651;50.940;6.888;2022-12-11T02:55:00;35.63;;;17.30;;
3278;SDS011;1651;50.940;6.888;2022-12-11T02:59:53;29.08;;;15.45;;
3278;SDS011;1651;50.940;6.888;2022-12-11T03:02:19;36.58;;;16.10;;
3278;SDS011;1651;50.940;6.888;2022-12-11T03:04:45;37.88;;;17.33;;
3278;SDS011;1651;50.940;6.888;2022-12-11T03:07:17;35.47;;;17.67;;
3278;SDS011;1651;50.940;6.888;2022-12-11T03:09:46;34.22;;;16.70;;
3278;SDS011;1651;50.940;6.888;2022-12-11T03:12:14;37.90;;;16.95;;
3278;SDS011;1651;50.940;6.888;2022-12-11T03:14:42;43.58;;;18.38;;
3278;SDS011;1651;50.940;6.888;2022-12-11T03:17:13;39.38;;;17.30;;
3278;SDS011;1651;50.940;6.888;2022-12-11T03:19:41;35.90;;;16.98;;
3278;SDS011;1651;50.940;6.888;2022-12-11T03:23:11;37.63;;;16.83;;
3278;SDS011;1651;50.940;6.888;2022-12-11T03:25:07;34.08;;;14.07;;
3278;SDS011;1651;50.940;6.888;2022-12-11T03:27:49;36.22;;;14.48;;
3278;SDS011;1651;50.940;6.888;2022-12-11T03:30:19;41.85;;;16.00;;
3278;SDS011;1651;50.940;6.888;2022-12-11T03:32:54;32.10;;;16.15;;
3278;SDS011;1651;50.940;6.888;2022-12-11T03:35:27;38.08;;;14.45;;
3278;SDS011;1651;50.940;6.888;2022-12-11T03:37:55;31.02;;;14.63;;
3278;SDS011;1651;50.940;6.888;2022-12-11T03:40:25;27.25;;;12.60;;
3278;SDS011;1651;50.940;6.888;2022-12-11T03:42:52;26.23;;;15.30;;
3278;SDS011;1651;50.940;6.888;2022-12-11T03:45:20;30.80;;;15.48;;
3278;SDS011;1651;50.940;6.888;2022-12-11T03:47:47;29.92;;;13.60;;
3278;SDS011;1651;50.940;6.888;2022-12-11T03:50:15;36.75;;;15.63;;
3278;SDS011;1651;50.940;6.888;2022-12-11T03:52:42;28.33;;;14.68;;
3278;SDS011;1651;50.940;6.888;2022-12-11T03:55:09;31.55;;;15.48;;
3278;SDS011;1651;50.940;6.888;2022-12-11T03:57:37;33.58;;;15.60;;
3278;SDS011;1651;50.940;6.888;2022-12-11T04:00:05;30.35;;;13.70;;
3278;SDS011;1651;50.940;6.888;2022-12-11T04:02:31;32.80;;;15.00;;
3278;SDS011;1651;50.940;6.888;2022-12-11T04:04:58;26.17;;;13.55;;
3278;SDS011;1651;50.940;6.888;2022-12-11T04:07:23;32.70;;;15.07;;
3278;SDS011;1651;50.940;6.888;2022-12-11T04:09:49;31.92;;;14.57;;
3278;SDS011;1651;50.940;6.888;2022-12-11T04:12:16;28.77;;;13.60;;
3278;SDS011;1651;50.940;6.888;2022-12-11T04:14:43;29.17;;;14.52;;
3278;SDS011;1651;50.940;6.888;2022-12-11T04:17:33;30.25;;;13.50;;
3278;SDS011;1651;50.940;6.888;2022-12-11T04:20:26;29.10;;;12.82;;
3278;SDS011;1651;50.940;6.888;2022-12-11T04:23:11;26.35;;;12.70;;
3278;SDS011;1651;50.940;6.888;2022-12-11T04:26:07;24.58;;;12.95;;
3278;SDS011;1651;50.940;6.888;2022-12-11T04:28:34;26.50;;;12.98;;
3278;SDS011;1651;50.940;6.888;2022-12-11T04:31:00;26.23;;;12.02;;
3278;SDS011;1651;50.940;6.888;2022-12-11T04:33:27;22.92;;;12.40;;
3278;SDS011;1651;50.940;6.888;2022-12-11T04:35:53;29.65;;;13.35;;
3278;SDS011;1651;50.940;6.888;2022-12-11T04:38:21;24.02;;;13.35;;
3278;SDS011;1651;50.940;6.888;2022-12-11T04:40:47;25.17;;;12.97;;
3278;SDS011;1651;50.940;6.888;2022-12-11T04:43:14;23.98;;;13.55;;
3278;SDS011;1651;50.940;6.888;2022-12-11T04:45:40;22.40;;;13.00;;
3278;SDS011;1651;50.940;6.888;2022-12-11T04:48:07;27.87;;;13.00;;
3278;SDS011;1651;50.940;6.888;2022-12-11T04:50:34;23.27;;;11.77;;
3278;SDS011;1651;50.940;6.888;2022-12-11T04:53:00;23.02;;;12.07;;
3278;SDS011;1651;50.940;6.888;2022-12-11T04:55:26;25.50;;;11.87;;
3278;SDS011;1651;50.940;6.888;2022-12-11T04:57:53;26.50;;;13.97;;
3278;SDS011;1651;50.940;6.888;2022-12-11T05:00:20;24.65;;;12.88;;
3278;SDS011;1651;50.940;6.888;2022-12-11T05:02:46;25.95;;;11.63;;
3278;SDS011;1651;50.940;6.888;2022-12-11T05:05:13;28.33;;;11.93;;
3278;SDS011;1651;50.940;6.888;2022-12-11T05:07:39;23.00;;;12.23;;
3278;SDS011;1651;50.940;6.888;2022-12-11T05:10:06;28.13;;;12.65;;
3278;SDS011;1651;50.940;6.888;2022-12-11T05:12:34;29.45;;;12.63;;
3278;SDS011;1651;50.940;6.888;2022-12-11T05:15:00;30.02;;;13.60;;
3278;SDS011;1651;50.940;6.888;2022-12-11T05:17:26;30.20;;;16.40;;
3278;SDS011;1651;50.940;6.888;2022-12-11T05:19:52;23.90;;;12.98;;
3278;SDS011;1651;50.940;6.888;2022-12-11T05:22:18;23.37;;;11.87;;
3278;SDS011;1651;50.940;6.888;2022-12-11T05:24:46;29.93;;;14.77;;
3278;SDS011;1651;50.940;6.888;2022-12-11T05:27:12;25.00;;;13.23;;
3278;SDS011;1651;50.940;6.888;2022-12-11T05:29:38;30.65;;;14.38;;
3278;SDS011;1651;50.940;6.888;2022-12-11T05:32:10;24.87;;;12.90;;
3278;SDS011;1651;50.940;6.888;2022-12-11T05:34:36;21.00;;;14.30;;
3278;SDS011;1651;50.940;6.888;2022-12-11T05:37:02;20.38;;;11.90;;
3278;SDS011;1651;50.940;6.888;2022-12-11T05:39:28;22.45;;;11.25;;
3278;SDS011;1651;50.940;6.888;2022-12-11T05:41:54;21.67;;;12.55;;
3278;SDS011;1651;50.940;6.888;2022-12-11T05:44:20;26.13;;;12.25;;
3278;SDS011;1651;50.940;6.888;2022-12-11T05:46:46;22.80;;;12.15;;
3278;SDS011;1651;50.940;6.888;2022-12-11T05:49:13;22.42;;;12.25;;
3278;SDS011;1651;50.940;6.888;2022-12-11T05:51:39;23.58;;;12.07;;
3278;SDS011;1651;50.940;6.888;2022-12-11T05:54:07;23.70;;;11.40;;
3278;SDS011;1651;50.940;6.888;2022-12-11T05:56:33;20.40;;;11.27;;
3278;SDS011;1651;50.940;6.888;2022-12-11T05:59:00;24.92;;;11.82;;
3278;SDS011;1651;50.940;6.888;2022-12-11T06:01:29;25.52;;;11.57;;
3278;SDS011;1651;50.940;6.888;2022-12-11T06:03:55;22.40;;;11.40;;
3278;SDS011;1651;50.940;6.888;2022-12-11T06:06:22;26.70;;;12.85;;
3278;SDS011;1651;50.940;6.888;2022-12-11T06:08:48;25.25;;;11.48;;
3278;SDS011;1651;50.940;6.888;2022-12-11T06:11:15;24.67;;;12.50;;
3278;SDS011;1651;50.940;6.888;2022-12-11T06:13:42;25.23;;;13.30;;
3278;SDS011;1651;50.940;6.888;2022-12-11T06:16:09;26.55;;;13.48;;
3278;SDS011;1651;50.940;6.888;2022-12-11T06:18:35;27.45;;;13.05;;
3278;SDS011;1651;50.940;6.888;2022-12-11T06:21:09;26.13;;;12.65;;
3278;SDS011;1651;50.940;6.888;2022-12-11T06:23:35;26.00;;;12.95;;
3278;SDS011;1651;50.940;6.888;2022-12-11T06:26:03;26.17;;;14.18;;
3278;SDS011;1651;50.940;6.888;2022-12-11T06:28:29;25.13;;;13.15;;
3278;SDS011;1651;50.940;6.888;2022-12-11T06:30:57;29.23;;;13.80;;
3278;SDS011;1651;50.940;6.888;2022-12-11T06:33:23;19.20;;;10.98;;
3278;SDS011;1651;50.940;6.888;2022-12-11T06:35:49;26.90;;;12.50;;
3278;SDS011;1651;50.940;6.888;2022-12-11T06:38:16;24.05;;;12.68;;
3278;SDS011;1651;50.940;6.888;2022-12-11T06:40:42;29.85;;;15.07;;
3278;SDS011;1651;50.940;6.888;2022-12-11T06:43:08;32.42;;;14.32;;
3278;SDS011;1651;50.940;6.888;2022-12-11T06:48:03;26.55;;;14.65;;
3278;SDS011;1651;50.940;6.888;2022-12-11T06:50:29;26.48;;;14.65;;
3278;SDS011;1651;50.940;6.888;2022-12-11T06:52:55;34.35;;;13.65;;
3278;SDS011;1651;50.940;6.888;2022-12-11T06:55:21;27.00;;;12.80;;
3278;SDS011;1651;50.940;6.888;2022-12-11T06:57:47;26.73;;;14.57;;
3278;SDS011;1651;50.940;6.888;2022-12-11T07:00:13;31.00;;;13.00;;
3278;SDS011;1651;50.940;6.888;2022-12-11T07:02:41;23.33;;;13.25;;
3278;SDS011;1651;50.940;6.888;2022-12-11T07:05:07;30.05;;;12.60;;
3278;SDS011;1651;50.940;6.888;2022-12-11T07:07:34;27.40;;;13.50;;
3278;SDS011;1651;50.940;6.888;2022-12-11T07:10:01;30.00;;;13.60;;
3278;SDS011;1651;50.940;6.888;2022-12-11T07:12:27;27.05;;;12.93;;
3278;SDS011;1651;50.940;6.888;2022-12-11T07:14:53;28.35;;;13.48;;
3278;SDS011;1651;50.940;6.888;2022-12-11T07:17:21;22.98;;;13.23;;
3278;SDS011;1651;50.940;6.888;2022-12-11T07:19:47;24.75;;;13.88;;
3278;SDS011;1651;50.940;6.888;2022-12-11T07:22:13;26.87;;;14.90;;
3278;SDS011;1651;50.940;6.888;2022-12-11T07:24:39;24.07;;;13.10;;
3278;SDS011;1651;50.940;6.888;2022-12-11T07:27:05;27.17;;;13.70;;
3278;SDS011;1651;50.940;6.888;2022-12-11T07:29:32;33.35;;;13.68;;
3278;SDS011;1651;50.940;6.888;2022-12-11T07:31:59;29.97;;;13.50;;
3278;SDS011;1651;50.940;6.888;2022-12-11T07:34:25;28.77;;;13.07;;
3278;SDS011;1651;50.940;6.888;2022-12-11T07:36:52;28.50;;;13.10;;
3278;SDS011;1651;50.940;6.888;2022-12-11T07:39:19;28.77;;;15.07;;
3278;SDS011;1651;50.940;6.888;2022-12-11T07:41:47;29.23;;;14.80;;
3278;SDS011;1651;50.940;6.888;2022-12-11T07:44:14;24.15;;;12.05;;
3278;SDS011;1651;50.940;6.888;2022-12-11T07:46:40;21.50;;;13.00;;
3278;SDS011;1651;50.940;6.888;2022-12-11T07:49:07;27.75;;;13.30;;
3278;SDS011;1651;50.940;6.888;2022-12-11T07:51:34;29.27;;;13.50;;
3278;SDS011;1651;50.940;6.888;2022-12-11T07:54:02;24.50;;;13.77;;
3278;SDS011;1651;50.940;6.888;2022-12-11T07:56:29;28.88;;;12.95;;
3278;SDS011;1651;50.940;6.888;2022-12-11T07:58:58;22.20;;;11.52;;
3278;SDS011;1651;50.940;6.888;2022-12-11T08:01:25;23.13;;;12.52;;
3278;SDS011;1651;50.940;6.888;2022-12-11T08:03:52;25.73;;;11.93;;
3278;SDS011;1651;50.940;6.888;2022-12-11T08:06:18;27.73;;;13.07;;
3278;SDS011;1651;50.940;6.888;2022-12-11T08:08:45;27.10;;;10.80;;
3278;SDS011;1651;50.940;6.888;2022-12-11T08:11:12;23.77;;;11.73;;
3278;SDS011;1651;50.940;6.888;2022-12-11T08:13:39;24.58;;;11.55;;
3278;SDS011;1651;50.940;6.888;2022-12-11T08:16:06;26.58;;;12.60;;
3278;SDS011;1651;50.940;6.888;2022-12-11T08:18:33;22.90;;;13.95;;
3278;SDS011;1651;50.940;6.888;2022-12-11T08:21:18;26.20;;;13.35;;
3278;SDS011;1651;50.940;6.888;2022-12-11T08:23:44;26.95;;;12.27;;
3278;SDS011;1651;50.940;6.888;2022-12-11T08:26:15;25.73;;;13.87;;
3278;SDS011;1651;50.940;6.888;2022-12-11T08:28:41;27.88;;;14.05;;
3278;SDS011;1651;50.940;6.888;2022-12-11T08:31:07;30.27;;;14.73;;
3278;SDS011;1651;50.940;6.888;2022-12-11T08:33:35;26.33;;;12.65;;
3278;SDS011;1651;50.940;6.888;2022-12-11T08:36:02;34.83;;;14.50;;
3278;SDS011;1651;50.940;6.888;2022-12-11T08:38:29;28.98;;;14.45;;
3278;SDS011;1651;50.940;6.888;2022-12-11T08:40:55;26.50;;;14.07;;
3278;SDS011;1651;50.940;6.888;2022-12-11T08:43:22;23.27;;;11.98;;
3278;SDS011;1651;50.940;6.888;2022-12-11T08:45:48;29.35;;;14.07;;
3278;SDS011;1651;50.940;6.888;2022-12-11T08:48:14;27.50;;;13.43;;
3278;SDS011;1651;50.940;6.888;2022-12-11T08:50:40;27.58;;;14.70;;
3278;SDS011;1651;50.940;6.888;2022-12-11T08:53:07;23.60;;;14.30;;
3278;SDS011;1651;50.940;6.888;2022-12-11T08:55:33;27.70;;;14.15;;
3278;SDS011;1651;50.940;6.888;2022-12-11T08:57:59;23.65;;;12.85;;
3278;SDS011;1651;50.940;6.888;2022-12-11T09:00:25;24.63;;;13.77;;
3278;SDS011;1651;50.940;6.888;2022-12-11T09:02:52;26.98;;;13.77;;
3278;SDS011;1651;50.940;6.888;2022-12-11T09:05:18;24.95;;;12.48;;
3278;SDS011;1651;50.940;6.888;2022-12-11T09:07:44;36.53;;;14.63;;
3278;SDS011;1651;50.940;6.888;2022-12-11T09:10:10;23.30;;;14.05;;
3278;SDS011;1651;50.940;6.888;2022-12-11T09:12:36;25.83;;;12.98;;
3278;SDS011;1651;50.940;6.888;2022-12-11T09:15:02;28.70;;;14.38;;
3278;SDS011;1651;50.940;6.888;2022-12-11T09:17:30;34.03;;;15.38;;
3278;SDS011;1651;50.940;6.888;2022-12-11T09:19:56;29.45;;;14.57;;
3278;SDS011;1651;50.940;6.888;2022-12-11T09:22:22;24.70;;;13.23;;
3278;SDS011;1651;50.940;6.888;2022-12-11T09:24:48;30.33;;;13.13;;
3278;SDS011;1651;50.940;6.888;2022-12-11T09:27:14;26.05;;;13.40;;
3278;SDS011;1651;50.940;6.888;2022-12-11T09:29:42;28.00;;;13.25;;
3278;SDS011;1651;50.940;6.888;2022-12-11T09:32:08;30.20;;;13.75;;
3278;SDS011;1651;50.940;6.888;2022-12-11T09:34:34;28.50;;;13.95;;
3278;SDS011;1651;50.940;6.888;2022-12-11T09:37:00;34.00;;;13.95;;
3278;SDS011;1651;50.940;6.888;2022-12-11T09:39:27;26.35;;;14.00;;
3278;SDS011;1651;50.940;6.888;2022-12-11T09:49:46;38.10;;;19.35;;
3278;SDS011;1651;50.940;6.888;2022-12-11T09:55:30;35.17;;;14.73;;
3278;SDS011;1651;50.940;6.888;2022-12-11T10:00:31;29.08;;;14.50;;
3278;SDS011;1651;50.940;6.888;2022-12-11T10:14:09;34.67;;;14.43;;
3278;SDS011;1651;50.940;6.888;2022-12-11T10:16:38;30.83;;;15.13;;
3278;SDS011;1651;50.940;6.888;2022-12-11T10:19:09;33.95;;;14.68;;
3278;SDS011;1651;50.940;6.888;2022-12-11T10:24:46;34.78;;;16.05;;
3278;SDS011;1651;50.940;6.888;2022-12-11T10:27:19;34.78;;;16.23;;
3278;SDS011;1651;50.940;6.888;2022-12-11T10:29:46;29.80;;;15.05;;
3278;SDS011;1651;50.940;6.888;2022-12-11T10:32:23;32.60;;;18.05;;
3278;SDS011;1651;50.940;6.888;2022-12-11T10:34:56;31.98;;;16.17;;
3278;SDS011;1651;50.940;6.888;2022-12-11T10:37:26;33.40;;;16.80;;
3278;SDS011;1651;50.940;6.888;2022-12-11T10:39:52;34.00;;;17.23;;
3278;SDS011;1651;50.940;6.888;2022-12-11T10:42:19;33.93;;;17.50;;
3278;SDS011;1651;50.940;6.888;2022-12-11T10:44:56;35.92;;;16.73;;
3278;SDS011;1651;50.940;6.888;2022-12-11T10:47:23;39.17;;;18.13;;
3278;SDS011;1651;50.940;6.888;2022-12-11T10:49:51;36.35;;;17.13;;
3278;SDS011;1651;50.940;6.888;2022-12-11T10:52:36;36.17;;;15.68;;
3278;SDS011;1651;50.940;6.888;2022-12-11T10:57:36;32.20;;;14.52;;
3278;SDS011;1651;50.940;6.888;2022-12-11T11:00:04;33.85;;;15.85;;
3278;SDS011;1651;50.940;6.888;2022-12-11T11:02:34;49.30;;;21.92;;
3278;SDS011;1651;50.940;6.888;2022-12-11T11:05:09;45.35;;;19.10;;
3278;SDS011;1651;50.940;6.888;2022-12-11T11:07:37;38.65;;;19.02;;
3278;SDS011;1651;50.940;6.888;2022-12-11T11:12:42;41.20;;;20.77;;
3278;SDS011;1651;50.940;6.888;2022-12-11T11:15:21;50.13;;;20.73;;
3278;SDS011;1651;50.940;6.888;2022-12-11T11:17:50;45.60;;;22.13;;
3278;SDS011;1651;50.940;6.888;2022-12-11T11:20:18;48.15;;;22.88;;
3278;SDS011;1651;50.940;6.888;2022-12-11T11:22:46;26.70;;;14.23;;
3278;SDS011;1651;50.940;6.888;2022-12-11T11:25:23;41.05;;;18.83;;
3278;SDS011;1651;50.940;6.888;2022-12-11T11:30:21;46.08;;;19.80;;
3278;SDS011;1651;50.940;6.888;2022-12-11T11:32:49;46.30;;;22.90;;
3278;SDS011;1651;50.940;6.888;2022-12-11T11:35:21;46.28;;;21.55;;
3278;SDS011;1651;50.940;6.888;2022-12-11T11:37:57;54.67;;;25.40;;
3278;SDS011;1651;50.940;6.888;2022-12-11T11:40:30;56.53;;;23.85;;
3278;SDS011;1651;50.940;6.888;2022-12-11T11:43:12;61.83;;;28.33;;
3278;SDS011;1651;50.940;6.888;2022-12-11T11:45:53;42.30;;;19.23;;
3278;SDS011;1651;50.940;6.888;2022-12-11T11:48:29;52.30;;;24.10;;
3278;SDS011;1651;50.940;6.888;2022-12-11T11:50:58;53.17;;;24.25;;
3278;SDS011;1651;50.940;6.888;2022-12-11T11:53:26;55.13;;;24.67;;
3278;SDS011;1651;50.940;6.888;2022-12-11T11:58:30;55.05;;;23.35;;
3278;SDS011;1651;50.940;6.888;2022-12-11T12:00:57;52.25;;;22.10;;
3278;SDS011;1651;50.940;6.888;2022-12-11T12:03:25;47.67;;;22.20;;
3278;SDS011;1651;50.940;6.888;2022-12-11T12:05:54;47.97;;;21.50;;
3278;SDS011;1651;50.940;6.888;2022-12-11T12:08:40;43.03;;;22.08;;
3278;SDS011;1651;50.940;6.888;2022-12-11T12:13:53;49.95;;;21.52;;
3278;SDS011;1651;50.940;6.888;2022-12-11T12:19:11;45.08;;;20.40;;
3278;SDS011;1651;50.940;6.888;2022-12-11T12:24:14;37.05;;;17.10;;
3278;SDS011;1651;50.940;6.888;2022-12-11T12:26:47;45.38;;;18.95;;
3278;SDS011;1651;50.940;6.888;2022-12-11T12:29:36;18.70;;;9.65;;
3278;SDS011;1651;50.940;6.888;2022-12-11T12:39:56;30.63;;;15.60;;
3278;SDS011;1651;50.940;6.888;2022-12-11T12:42:31;33.67;;;17.00;;
3278;SDS011;1651;50.940;6.888;2022-12-11T12:47:26;27.42;;;12.98;;
3278;SDS011;1651;50.940;6.888;2022-12-11T12:49:54;25.80;;;13.23;;
3278;SDS011;1651;50.940;6.888;2022-12-11T12:52:23;36.65;;;18.50;;
3278;SDS011;1651;50.940;6.888;2022-12-11T12:54:53;26.30;;;14.77;;
3278;SDS011;1651;50.940;6.888;2022-12-11T12:57:53;29.00;;;15.43;;
3278;SDS011;1651;50.940;6.888;2022-12-11T13:00:54;37.67;;;19.90;;
3278;SDS011;1651;50.940;6.888;2022-12-11T13:03:18;30.83;;;18.70;;
3278;SDS011;1651;50.940;6.888;2022-12-11T13:05:56;39.78;;;20.83;;
3278;SDS011;1651;50.940;6.888;2022-12-11T13:08:39;33.00;;;18.45;;
3278;SDS011;1651;50.940;6.888;2022-12-11T13:11:07;25.08;;;13.48;;
3278;SDS011;1651;50.940;6.888;2022-12-11T13:13:38;35.40;;;18.80;;
3278;SDS011;1651;50.940;6.888;2022-12-11T13:16:24;32.85;;;16.85;;
3278;SDS011;1651;50.940;6.888;2022-12-11T13:18:51;43.30;;;18.73;;
3278;SDS011;1651;50.940;6.888;2022-12-11T13:21:36;25.50;;;11.77;;
3278;SDS011;1651;50.940;6.888;2022-12-11T13:24:11;21.50;;;11.38;;
3278;SDS011;1651;50.940;6.888;2022-12-11T13:26:40;33.28;;;16.60;;
3278;SDS011;1651;50.940;6.888;2022-12-11T13:31:55;34.65;;;17.15;;
3278;SDS011;1651;50.940;6.888;2022-12-11T13:34:22;25.98;;;12.05;;
3278;SDS011;1651;50.940;6.888;2022-12-11T13:36:51;37.50;;;17.73;;
3278;SDS011;1651;50.940;6.888;2022-12-11T13:39:19;37.30;;;16.40;;
3278;SDS011;1651;50.940;6.888;2022-12-11T13:41:49;41.25;;;17.35;;
3278;SDS011;1651;50.940;6.888;2022-12-11T13:44:18;29.35;;;17.83;;
3278;SDS011;1651;50.940;6.888;2022-12-11T13:46:46;40.05;;;18.40;;
3278;SDS011;1651;50.940;6.888;2022-12-11T13:49:33;39.90;;;20.25;;
3278;SDS011;1651;50.940;6.888;2022-12-11T13:54:29;27.92;;;12.48;;
3278;SDS011;1651;50.940;6.888;2022-12-11T13:56:59;32.35;;;15.90;;
3278;SDS011;1651;50.940;6.888;2022-12-11T13:59:27;36.10;;;16.38;;
3278;SDS011;1651;50.940;6.888;2022-12-11T14:01:55;32.17;;;17.90;;
3278;SDS011;1651;50.940;6.888;2022-12-11T14:04:25;28.45;;;14.30;;
3278;SDS011;1651;50.940;6.888;2022-12-11T14:06:54;24.95;;;14.55;;
3278;SDS011;1651;50.940;6.888;2022-12-11T14:09:24;34.03;;;16.38;;
3278;SDS011;1651;50.940;6.888;2022-12-11T14:11:52;30.58;;;15.38;;
3278;SDS011;1651;50.940;6.888;2022-12-11T14:14:22;29.10;;;16.85;;
3278;SDS011;1651;50.940;6.888;2022-12-11T14:16:49;32.90;;;17.65;;
3278;SDS011;1651;50.940;6.888;2022-12-11T14:19:17;25.55;;;15.00;;
3278;SDS011;1651;50.940;6.888;2022-12-11T14:21:53;29.80;;;15.25;;
3278;SDS011;1651;50.940;6.888;2022-12-11T14:24:19;88.47;;;37.15;;
3278;SDS011;1651;50.940;6.888;2022-12-11T14:26:49;30.08;;;18.05;;
3278;SDS011;1651;50.940;6.888;2022-12-11T14:29:27;28.83;;;16.35;;
3278;SDS011;1651;50.940;6.888;2022-12-11T14:31:54;33.38;;;16.75;;
3278;SDS011;1651;50.940;6.888;2022-12-11T14:34:29;29.77;;;15.98;;
3278;SDS011;1651;50.940;6.888;2022-12-11T14:36:55;26.27;;;10.50;;
3278;SDS011;1651;50.940;6.888;2022-12-11T14:39:30;26.85;;;12.52;;
3278;SDS011;1651;50.940;6.888;2022-12-11T14:42:12;24.52;;;13.00;;
3278;SDS011;1651;50.940;6.888;2022-12-11T14:47:21;29.48;;;15.68;;
3278;SDS011;1651;50.940;6.888;2022-12-11T14:50:04;28.90;;;14.38;;
3278;SDS011;1651;50.940;6.888;2022-12-11T14:52:39;27.15;;;14.27;;
3278;SDS011;1651;50.940;6.888;2022-12-11T14:57:38;26.33;;;12.63;;
3278;SDS011;1651;50.940;6.888;2022-12-11T15:00:06;24.67;;;14.90;;
3278;SDS011;1651;50.940;6.888;2022-12-11T15:02:34;31.05;;;13.45;;
3278;SDS011;1651;50.940;6.888;2022-12-11T15:05:06;25.35;;;13.02;;
3278;SDS011;1651;50.940;6.888;2022-12-11T15:07:32;24.63;;;13.25;;
3278;SDS011;1651;50.940;6.888;2022-12-11T15:09:59;25.98;;;13.73;;
3278;SDS011;1651;50.940;6.888;2022-12-11T15:12:25;31.40;;;13.95;;
3278;SDS011;1651;50.940;6.888;2022-12-11T15:14:56;23.43;;;14.53;;
3278;SDS011;1651;50.940;6.888;2022-12-11T15:17:25;32.88;;;14.77;;
3278;SDS011;1651;50.940;6.888;2022-12-11T15:19:58;29.10;;;14.88;;
3278;SDS011;1651;50.940;6.888;2022-12-11T15:22:29;25.90;;;13.32;;
3278;SDS011;1651;50.940;6.888;2022-12-11T15:24:58;27.08;;;14.10;;
3278;SDS011;1651;50.940;6.888;2022-12-11T15:27:29;24.55;;;14.77;;
3278;SDS011;1651;50.940;6.888;2022-12-11T15:29:58;37.38;;;17.33;;
3278;SDS011;1651;50.940;6.888;2022-12-11T15:32:24;26.70;;;15.65;;
3278;SDS011;1651;50.940;6.888;2022-12-11T15:34:54;28.77;;;14.52;;
3278;SDS011;1651;50.940;6.888;2022-12-11T15:39:50;29.65;;;15.80;;
3278;SDS011;1651;50.940;6.888;2022-12-11T15:44:52;31.00;;;16.13;;
3278;SDS011;1651;50.940;6.888;2022-12-11T15:47:20;37.05;;;17.85;;
3278;SDS011;1651;50.940;6.888;2022-12-11T15:49:46;25.98;;;14.45;;
3278;SDS011;1651;50.940;6.888;2022-12-11T15:52:17;33.80;;;19.03;;
3278;SDS011;1651;50.940;6.888;2022-12-11T15:54:43;29.15;;;17.45;;
3278;SDS011;1651;50.940;6.888;2022-12-11T15:57:11;32.08;;;16.45;;
3278;SDS011;1651;50.940;6.888;2022-12-11T15:59:39;32.15;;;16.55;;
3278;SDS011;1651;50.940;6.888;2022-12-11T16:02:16;26.00;;;15.18;;
3278;SDS011;1651;50.940;6.888;2022-12-11T16:04:42;29.45;;;16.75;;
3278;SDS011;1651;50.940;6.888;2022-12-11T16:07:11;32.25;;;17.33;;
3278;SDS011;1651;50.940;6.888;2022-12-11T16:09:39;37.00;;;18.77;;
3278;SDS011;1651;50.940;6.888;2022-12-11T16:12:05;109.05;;;45.08;;
3278;SDS011;1651;50.940;6.888;2022-12-11T16:14:31;44.88;;;24.27;;
3278;SDS011;1651;50.940;6.888;2022-12-11T16:17:03;31.90;;;18.05;;
3278;SDS011;1651;50.940;6.888;2022-12-11T16:19:29;30.55;;;17.92;;
3278;SDS011;1651;50.940;6.888;2022-12-11T16:21:55;32.33;;;17.35;;
3278;SDS011;1651;50.940;6.888;2022-12-11T16:24:21;34.73;;;18.80;;
3278;SDS011;1651;50.940;6.888;2022-12-11T16:26:48;31.95;;;15.80;;
3278;SDS011;1651;50.940;6.888;2022-12-11T16:29:15;30.40;;;16.80;;
3278;SDS011;1651;50.940;6.888;2022-12-11T16:31:42;34.00;;;17.17;;